createdAt,value
2023-04-24T00:02:12.384Z,100012.56
2023-04-24T00:07:34.601Z,100012.81
2023-04-24T00:12:56.422Z,100007.56
2023-04-24T00:18:19.063Z,100013.63
2023-04-24T00:23:40.922Z,100011.97
2023-04-24T00:29:02.751Z,100012.53
2023-04-24T00:34:24.706Z,100021.09
2023-04-24T00:39:46.547Z,100025.81
2023-04-24T00:45:09.121Z,100028.84
2023-04-24T00:50:31.759Z,100028.31
2023-04-24T00:55:53.809Z,100028.56
2023-04-24T01:01:15.866Z,100029.66
2023-04-24T01:06:40.181Z,100026.88
2023-04-24T01:12:02.762Z,100027.16
2023-04-24T01:17:24.598Z,100025.78
2023-04-24T01:22:46.667Z,100029.66
2023-04-24T01:28:08.709Z,100033.53
2023-04-24T01:33:30.740Z,100026.31
2023-04-24T01:38:52.821Z,100027.41
2023-04-24T01:44:15.501Z,100034.06
2023-04-24T01:49:39.920Z,100026.03
2023-04-24T01:55:02.064Z,100024.06
2023-04-24T02:00:24.259Z,100022.69
2023-04-24T02:05:46.527Z,100021.84
2023-04-24T02:11:10.739Z,100020.16
2023-04-24T02:16:34.196Z,100030.44
2023-04-24T02:21:56.193Z,100037.91
2023-04-24T02:27:17.982Z,100037.06
2023-04-24T02:32:40.389Z,100034.56
2023-04-24T02:38:02.407Z,100034.00
2023-04-24T02:43:24.265Z,100028.72
2023-04-24T02:48:46.076Z,100036.19
2023-04-24T02:54:09.606Z,100037.31
2023-04-24T02:59:31.569Z,100038.41
2023-04-24T03:04:53.376Z,100041.44
2023-04-24T03:10:15.151Z,100038.94
2023-04-24T03:15:36.935Z,100048.38
2023-04-24T03:20:59.004Z,100032.00
2023-04-24T03:26:21.126Z,100039.50
2023-04-24T03:31:43.028Z,100041.69
2023-04-24T03:37:04.953Z,100050.00
2023-04-24T03:42:26.735Z,100046.38
2023-04-24T03:47:48.595Z,100040.28
2023-04-24T03:53:10.531Z,100050.53
2023-04-24T03:58:32.442Z,100052.47
2023-04-24T04:03:54.377Z,100071.00
2023-04-24T04:09:16.504Z,100061.03
2023-04-24T04:14:38.363Z,100067.66
2023-04-24T04:20:00.156Z,100087.06
2023-04-24T04:25:22.080Z,100089.28
2023-04-24T04:30:43.951Z,100089.28
2023-04-24T04:36:05.949Z,100108.09
2023-04-24T04:41:27.793Z,100106.41
2023-04-24T04:46:49.826Z,100125.22
2023-04-24T04:52:11.859Z,100134.63
2023-04-24T04:57:33.727Z,100139.31
2023-04-24T05:03:03.095Z,100147.88
2023-04-24T05:08:31.101Z,100154.03
2023-04-24T05:13:52.876Z,100175.53
2023-04-24T05:19:15.919Z,100199.34
2023-04-24T05:24:37.987Z,100203.34
2023-04-24T05:29:59.889Z,100216.47
2023-04-24T05:35:21.758Z,100237.63
2023-04-24T05:40:43.803Z,100241.22
2023-04-24T05:46:06.033Z,100253.69
2023-04-24T05:51:27.866Z,100265.59
2023-04-24T05:56:51.055Z,100284.13
2023-04-24T06:02:12.982Z,100293.72
2023-04-24T06:07:35.269Z,100315.84
2023-04-24T06:13:01.443Z,100315.25
2023-04-24T06:18:23.376Z,100329.34
2023-04-24T06:23:45.332Z,100349.53
2023-04-24T06:29:08.652Z,100353.91
2023-04-24T06:34:32.039Z,100368.31
2023-04-24T06:39:53.837Z,100380.16
2023-04-24T06:45:15.907Z,100385.38
2023-04-24T06:50:37.737Z,100392.59
2023-04-24T06:55:59.589Z,100398.47
2023-04-24T07:01:21.507Z,100396.91
2023-04-24T07:06:43.489Z,100403.38
2023-04-24T07:12:05.379Z,100412.91
2023-04-24T07:17:27.267Z,100421.59
2023-04-24T07:22:50.400Z,100426.94
2023-04-24T07:28:12.282Z,100442.28
2023-04-24T07:33:34.090Z,100458.72
2023-04-24T07:38:56.852Z,100475.06
2023-04-24T07:44:18.880Z,100482.56
2023-04-24T07:49:40.709Z,100502.00
2023-04-24T07:55:03.511Z,100502.00
2023-04-24T08:00:25.378Z,100506.69
2023-04-24T08:05:47.376Z,100510.31
2023-04-24T08:11:09.288Z,100523.66
2023-04-24T08:16:31.607Z,100540.94
2023-04-24T08:21:53.528Z,100552.09
2023-04-24T08:27:15.593Z,100552.66
2023-04-24T08:32:38.352Z,100568.78
2023-04-24T08:38:00.143Z,100578.53
2023-04-24T08:43:24.353Z,100585.72
2023-04-24T08:48:46.941Z,100585.38
2023-04-24T08:54:09.477Z,100591.97
2023-04-24T08:59:35.080Z,100602.16
2023-04-24T09:04:57.389Z,100617.84
2023-04-24T09:10:19.482Z,100625.59
2023-04-24T09:15:42.401Z,100638.56
2023-04-24T09:21:08.382Z,100636.91
2023-04-24T09:26:37.919Z,100626.94
2023-04-24T09:32:00.192Z,100640.75
2023-04-24T09:37:31.488Z,100653.78
2023-04-24T09:42:56.721Z,100658.16
2023-04-24T09:48:18.540Z,100676.38
2023-04-24T09:53:43.422Z,100680.25
2023-04-24T09:59:08.672Z,100688.81
2023-04-24T10:04:31.048Z,100701.50
2023-04-24T10:09:53.037Z,100707.31
2023-04-24T10:15:15.814Z,100710.91
2023-04-24T10:20:39.411Z,100703.19
2023-04-24T10:26:01.831Z,100709.00
2023-04-24T10:31:23.966Z,100720.34
2023-04-24T10:36:54.299Z,100721.78
2023-04-24T10:42:18.087Z,100726.72
2023-04-24T10:47:43.514Z,100734.69
2023-04-24T10:53:16.536Z,100744.38
2023-04-24T10:58:39.508Z,100743.78
2023-04-24T11:04:06.135Z,100757.06
2023-04-24T11:09:29.971Z,100763.44
2023-04-24T11:15:00.988Z,100762.94
2023-04-24T11:20:28.215Z,100758.22
2023-04-24T11:26:36.883Z,100764.38
2023-04-24T11:32:16.243Z,100778.81
2023-04-24T11:37:40.475Z,100796.06
2023-04-24T11:43:02.382Z,100789.16
2023-04-24T11:48:24.196Z,100783.34
2023-04-24T11:53:47.740Z,100783.94
2023-04-24T11:59:11.777Z,100803.59
2023-04-24T12:04:41.967Z,100806.13
2023-04-24T12:10:06.958Z,100815.53
2023-04-24T12:15:29.903Z,100821.06
2023-04-24T12:20:51.704Z,100820.25
2023-04-24T12:26:18.049Z,100836.03
2023-04-24T12:31:39.889Z,100823.25
2023-04-24T12:37:12.353Z,100832.16
2023-04-24T12:42:35.032Z,100837.72
2023-04-24T12:47:56.936Z,100838.78
2023-04-24T12:53:18.818Z,100850.75
2023-04-24T12:58:40.655Z,100847.72
2023-04-24T13:04:02.576Z,100858.81
2023-04-24T13:09:25.014Z,100855.53
2023-04-24T13:14:47.066Z,100861.06
2023-04-24T13:20:09.217Z,100859.72
2023-04-24T13:25:36.754Z,100855.88
2023-04-24T13:30:58.617Z,100855.88
2023-04-24T13:36:20.548Z,100860.59
2023-04-24T13:41:42.477Z,100848.91
2023-04-24T13:47:04.310Z,100853.34
2023-04-24T13:52:26.251Z,100848.91
2023-04-24T13:57:48.107Z,100841.16
2023-04-24T14:03:10.205Z,100853.34
2023-04-24T14:08:32.043Z,100847.81
2023-04-24T14:13:55.782Z,100845.25
2023-04-24T14:19:17.649Z,100844.44
2023-04-24T14:24:39.474Z,100845.78
2023-04-24T14:30:01.649Z,100840.25
2023-04-24T14:35:23.699Z,100841.06
2023-04-24T14:41:05.507Z,100848.63
2023-04-24T14:46:27.332Z,100841.75
2023-04-24T14:51:49.749Z,100845.72
2023-04-24T14:57:12.116Z,100859.16
2023-04-24T15:02:34.811Z,100857.56
2023-04-24T15:07:56.943Z,100863.81
2023-04-24T15:13:18.728Z,100857.22
2023-04-24T15:18:40.517Z,100863.38
2023-04-24T15:24:02.315Z,100862.88
2023-04-24T15:29:24.151Z,100866.19
2023-04-24T15:34:46.053Z,100868.47
2023-04-24T15:40:11.738Z,100870.47
2023-04-24T15:45:34.368Z,100874.13
2023-04-24T15:50:56.523Z,100879.91
2023-04-24T15:56:18.675Z,100873.03
2023-04-24T16:01:41.364Z,100878.56
2023-04-24T16:07:03.549Z,100876.38
2023-04-24T16:12:27.994Z,100893.53
2023-04-24T16:17:50.610Z,100900.09
2023-04-24T16:23:12.584Z,100898.34
2023-04-24T16:28:34.331Z,100900.53
2023-04-24T16:33:56.076Z,100902.13
2023-04-24T16:39:18.035Z,100915.22
2023-04-24T16:44:40.687Z,100918.75
2023-04-24T16:50:02.530Z,100928.41
2023-04-24T16:55:25.424Z,100924.38
2023-04-24T17:00:48.910Z,100927.75
2023-04-24T17:06:10.826Z,100931.88
2023-04-24T17:11:32.612Z,100930.97
2023-04-24T17:16:54.603Z,100932.56
2023-04-24T17:22:16.522Z,100934.81
2023-04-24T17:27:38.343Z,100933.19
2023-04-24T17:33:00.206Z,100921.09
2023-04-24T17:38:22.170Z,100923.38
2023-04-24T17:43:45.999Z,100932.25
2023-04-24T17:49:08.062Z,100923.00
2023-04-24T17:54:29.956Z,100942.72
2023-04-24T17:59:51.888Z,100946.53
2023-04-24T18:05:13.674Z,100950.03
2023-04-24T18:10:38.649Z,100949.22
2023-04-24T18:16:00.594Z,100948.63
2023-04-24T18:21:23.900Z,100965.22
2023-04-24T18:26:45.811Z,100960.66
2023-04-24T18:32:10.670Z,100971.16
2023-04-24T18:37:33.759Z,100970.06
2023-04-24T18:42:56.965Z,100986.38
2023-04-24T18:48:18.791Z,100987.06
2023-04-24T18:53:40.891Z,100984.44
2023-04-24T18:59:02.790Z,100993.13
2023-04-24T19:04:24.685Z,100999.50
2023-04-24T19:09:46.665Z,101003.66
2023-04-24T19:15:11.983Z,101009.97
2023-04-24T19:20:34.214Z,101022.91
2023-04-24T19:25:56.153Z,101023.28
2023-04-24T19:31:17.957Z,101023.06
2023-04-24T19:36:39.811Z,101032.00
2023-04-24T19:42:03.736Z,101039.69
2023-04-24T19:47:27.340Z,101036.22
2023-04-24T19:52:49.576Z,101040.50
2023-04-24T19:58:11.446Z,101046.16
2023-04-24T20:03:34.253Z,101045.72
2023-04-24T20:08:56.701Z,101033.25
2023-04-24T20:14:18.549Z,101040.53
2023-04-24T20:19:41.206Z,101039.53
2023-04-24T20:25:03.454Z,101045.28
2023-04-24T20:30:25.779Z,101050.78
2023-04-24T20:35:48.147Z,101052.03
2023-04-24T20:41:10.751Z,101050.03
2023-04-24T20:46:33.703Z,101047.47
2023-04-24T20:51:55.599Z,101056.91
2023-04-24T20:57:17.399Z,101059.13
2023-04-24T21:02:39.326Z,101052.38
2023-04-24T21:08:01.425Z,101057.94
2023-04-24T21:13:23.408Z,101046.47
2023-04-24T21:18:45.684Z,101048.66
2023-04-24T21:24:07.628Z,101048.66
2023-04-24T21:29:29.556Z,101055.56
2023-04-24T21:34:51.385Z,101043.84
2023-04-24T21:40:13.390Z,101038.53
2023-04-24T21:45:35.249Z,101036.03
2023-04-24T21:50:57.091Z,101029.88
2023-04-24T21:56:18.969Z,101020.94
2023-04-24T22:01:40.827Z,101030.38
2023-04-24T22:07:02.703Z,101030.91
2023-04-24T22:12:24.585Z,101030.81
2023-04-24T22:17:46.417Z,101028.44
2023-04-24T22:23:08.241Z,101035.84
2023-04-24T22:28:30.100Z,101036.81
2023-04-24T22:33:52.180Z,101040.34
2023-04-24T22:39:17.689Z,101046.91
2023-04-24T22:44:39.493Z,101044.03
2023-04-24T22:50:01.383Z,101043.69
2023-04-24T22:55:23.137Z,101046.13
2023-04-24T23:00:44.975Z,101046.03
2023-04-24T23:06:06.972Z,101047.59
2023-04-24T23:11:28.779Z,101041.44
2023-04-24T23:16:51.031Z,101044.44
2023-04-24T23:22:12.973Z,101041.06
2023-04-24T23:27:35.739Z,101039.03
2023-04-24T23:32:57.595Z,101051.47
2023-04-24T23:38:19.472Z,101046.41
2023-04-24T23:43:41.354Z,101043.03
2023-04-24T23:49:07.294Z,101046.06
2023-04-24T23:54:29.145Z,101043.78
2023-04-24T23:59:51.043Z,101039.31
